Terminal Aerodrome Forecast
Issued by NWS Lake Charles, LA

Home | Current Version | Previous Version | Text Only | Print | Product List | Glossary On
Versions: 1 2 3 4 5 6 7 8 9 10 11 12 13 14 15 16 17
373
FTUS44 KLCH 170538
TAFLFT
TAF
KLFT 170538Z 1706/1806 17008G16KT P6SM OVC008
      TEMPO 1706/1710 SCT008 OVC018
     FM171000 17005KT P6SM VCSH OVC009
      TEMPO 1710/1714 4SM BR SCT011 OVC018
     FM171500 18008KT P6SM VCSH OVC015
     FM171800 18007KT P6SM BKN035=

USA.gov is the U.S. government's official web portal to all federal, state and local government web resources and services.